sensor_id;sensor_type;location;lat;lon;timestamp;temperature;humidity
33655;DHT22;19997;51.274;22.506;2023-04-24T00:01:43;13.40;62.20
33655;DHT22;19997;51.274;22.506;2023-04-24T00:04:10;13.40;62.30
33655;DHT22;19997;51.274;22.506;2023-04-24T00:06:39;13.40;62.30
33655;DHT22;19997;51.274;22.506;2023-04-24T00:09:08;13.40;62.40
33655;DHT22;19997;51.274;22.506;2023-04-24T00:11:37;13.40;62.40
33655;DHT22;19997;51.274;22.506;2023-04-24T00:14:04;13.30;62.40
33655;DHT22;19997;51.274;22.506;2023-04-24T00:16:31;13.30;62.70
33655;DHT22;19997;51.274;22.506;2023-04-24T00:18:59;13.30;62.60
33655;DHT22;19997;51.274;22.506;2023-04-24T00:21:26;13.20;62.60
33655;DHT22;19997;51.274;22.506;2023-04-24T00:23:53;13.20;62.70
33655;DHT22;19997;51.274;22.506;2023-04-24T00:26:20;13.20;62.80
33655;DHT22;19997;51.274;22.506;2023-04-24T00:28:48;13.20;62.90
33655;DHT22;19997;51.274;22.506;2023-04-24T00:31:15;13.20;62.90
33655;DHT22;19997;51.274;22.506;2023-04-24T00:33:42;13.10;62.90
33655;DHT22;19997;51.274;22.506;2023-04-24T00:36:11;13.10;63.10
33655;DHT22;19997;51.274;22.506;2023-04-24T00:38:38;13.10;63.30
33655;DHT22;19997;51.274;22.506;2023-04-24T00:41:06;13.10;63.40
33655;DHT22;19997;51.274;22.506;2023-04-24T00:43:33;13.00;63.40
33655;DHT22;19997;51.274;22.506;2023-04-24T00:46:00;12.90;63.40
33655;DHT22;19997;51.274;22.506;2023-04-24T00:48:28;13.00;63.60
33655;DHT22;19997;51.274;22.506;2023-04-24T00:50:55;12.90;63.70
33655;DHT22;19997;51.274;22.506;2023-04-24T00:53:24;12.90;63.80
33655;DHT22;19997;51.274;22.506;2023-04-24T00:55:51;12.90;64.10
33655;DHT22;19997;51.274;22.506;2023-04-24T00:58:19;12.80;64.10
33655;DHT22;19997;51.274;22.506;2023-04-24T01:00:47;12.80;64.40
33655;DHT22;19997;51.274;22.506;2023-04-24T01:03:16;12.80;64.50
33655;DHT22;19997;51.274;22.506;2023-04-24T01:05:44;12.70;64.70
33655;DHT22;19997;51.274;22.506;2023-04-24T01:08:11;12.70;64.80
33655;DHT22;19997;51.274;22.506;2023-04-24T01:10:41;12.60;64.90
33655;DHT22;19997;51.274;22.506;2023-04-24T01:13:08;12.60;65.10
33655;DHT22;19997;51.274;22.506;2023-04-24T01:15:35;12.50;65.20
33655;DHT22;19997;51.274;22.506;2023-04-24T01:18:03;12.50;65.50
33655;DHT22;19997;51.274;22.506;2023-04-24T01:20:31;12.40;65.50
33655;DHT22;19997;51.274;22.506;2023-04-24T01:23:00;12.40;65.70
33655;DHT22;19997;51.274;22.506;2023-04-24T01:25:28;12.30;65.80
33655;DHT22;19997;51.274;22.506;2023-04-24T01:27:56;12.30;66.00
33655;DHT22;19997;51.274;22.506;2023-04-24T01:30:24;12.20;66.10
33655;DHT22;19997;51.274;22.506;2023-04-24T01:32:51;12.20;66.30
33655;DHT22;19997;51.274;22.506;2023-04-24T01:35:19;12.20;66.40
33655;DHT22;19997;51.274;22.506;2023-04-24T01:37:46;12.10;66.60
33655;DHT22;19997;51.274;22.506;2023-04-24T01:40:15;12.10;66.70
33655;DHT22;19997;51.274;22.506;2023-04-24T01:42:42;12.10;66.90
33655;DHT22;19997;51.274;22.506;2023-04-24T01:45:11;12.00;67.00
33655;DHT22;19997;51.274;22.506;2023-04-24T01:47:38;12.00;67.80
33655;DHT22;19997;51.274;22.506;2023-04-24T01:50:07;12.00;67.10
33655;DHT22;19997;51.274;22.506;2023-04-24T01:52:34;12.00;67.30
33655;DHT22;19997;51.274;22.506;2023-04-24T01:55:02;12.00;67.40
33655;DHT22;19997;51.274;22.506;2023-04-24T01:57:31;11.90;67.40
33655;DHT22;19997;51.274;22.506;2023-04-24T01:59:58;11.90;67.40
33655;DHT22;19997;51.274;22.506;2023-04-24T02:02:25;11.90;67.50
33655;DHT22;19997;51.274;22.506;2023-04-24T02:04:56;11.90;67.70
33655;DHT22;19997;51.274;22.506;2023-04-24T02:07:23;11.80;67.80
33655;DHT22;19997;51.274;22.506;2023-04-24T02:09:50;11.80;67.90
33655;DHT22;19997;51.274;22.506;2023-04-24T02:12:18;11.80;68.00
33655;DHT22;19997;51.274;22.506;2023-04-24T02:14:46;11.80;68.10
33655;DHT22;19997;51.274;22.506;2023-04-24T02:17:13;11.70;68.20
33655;DHT22;19997;51.274;22.506;2023-04-24T02:19:41;11.70;68.20
33655;DHT22;19997;51.274;22.506;2023-04-24T02:22:09;11.70;68.30
33655;DHT22;19997;51.274;22.506;2023-04-24T02:24:37;11.70;68.30
33655;DHT22;19997;51.274;22.506;2023-04-24T02:27:06;11.70;68.50
33655;DHT22;19997;51.274;22.506;2023-04-24T02:29:33;11.70;68.60
33655;DHT22;19997;51.274;22.506;2023-04-24T02:32:04;11.70;68.60
33655;DHT22;19997;51.274;22.506;2023-04-24T02:34:32;11.70;68.60
33655;DHT22;19997;51.274;22.506;2023-04-24T02:36:59;11.60;68.60
33655;DHT22;19997;51.274;22.506;2023-04-24T02:39:26;11.60;68.60
33655;DHT22;19997;51.274;22.506;2023-04-24T02:41:53;11.60;68.70
33655;DHT22;19997;51.274;22.506;2023-04-24T02:44:20;11.60;68.70
33655;DHT22;19997;51.274;22.506;2023-04-24T02:46:48;11.60;68.90
33655;DHT22;19997;51.274;22.506;2023-04-24T02:49:17;11.60;68.90
33655;DHT22;19997;51.274;22.506;2023-04-24T02:51:44;11.60;69.00
33655;DHT22;19997;51.274;22.506;2023-04-24T02:54:11;11.60;69.00
33655;DHT22;19997;51.274;22.506;2023-04-24T02:56:38;11.60;69.00
33655;DHT22;19997;51.274;22.506;2023-04-24T02:59:07;11.60;69.00
33655;DHT22;19997;51.274;22.506;2023-04-24T03:01:34;11.60;69.20
33655;DHT22;19997;51.274;22.506;2023-04-24T03:04:02;11.60;69.00
33655;DHT22;19997;51.274;22.506;2023-04-24T03:06:31;11.60;69.00
33655;DHT22;19997;51.274;22.506;2023-04-24T03:08:58;11.60;69.00
33655;DHT22;19997;51.274;22.506;2023-04-24T03:11:25;11.60;69.10
33655;DHT22;19997;51.274;22.506;2023-04-24T03:13:52;11.70;69.10
33655;DHT22;19997;51.274;22.506;2023-04-24T03:16:19;11.70;69.30
33655;DHT22;19997;51.274;22.506;2023-04-24T03:18:46;11.70;69.10
33655;DHT22;19997;51.274;22.506;2023-04-24T03:21:14;11.70;69.10
33655;DHT22;19997;51.274;22.506;2023-04-24T03:23:44;11.70;69.10
33655;DHT22;19997;51.274;22.506;2023-04-24T03:26:11;11.70;69.20
33655;DHT22;19997;51.274;22.506;2023-04-24T03:28:48;11.80;69.20
33655;DHT22;19997;51.274;22.506;2023-04-24T03:31:16;11.80;69.20
33655;DHT22;19997;51.274;22.506;2023-04-24T03:33:44;11.80;69.20
33655;DHT22;19997;51.274;22.506;2023-04-24T03:36:12;11.80;69.10
33655;DHT22;19997;51.274;22.506;2023-04-24T03:38:40;11.80;69.10
33655;DHT22;19997;51.274;22.506;2023-04-24T03:41:30;11.90;69.10
33655;DHT22;19997;51.274;22.506;2023-04-24T03:44:13;11.90;69.00
33655;DHT22;19997;51.274;22.506;2023-04-24T03:46:41;12.00;68.90
33655;DHT22;19997;51.274;22.506;2023-04-24T03:49:08;12.00;68.80
33655;DHT22;19997;51.274;22.506;2023-04-24T03:51:39;12.10;68.90
33655;DHT22;19997;51.274;22.506;2023-04-24T03:54:16;12.10;68.80
33655;DHT22;19997;51.274;22.506;2023-04-24T03:56:46;12.10;68.70
33655;DHT22;19997;51.274;22.506;2023-04-24T03:59:13;12.20;68.70
33655;DHT22;19997;51.274;22.506;2023-04-24T04:01:43;12.20;68.70
33655;DHT22;19997;51.274;22.506;2023-04-24T04:04:15;12.20;68.70
33655;DHT22;19997;51.274;22.506;2023-04-24T04:06:44;12.30;68.70
33655;DHT22;19997;51.274;22.506;2023-04-24T04:09:12;12.30;68.70
33655;DHT22;19997;51.274;22.506;2023-04-24T04:11:39;12.30;68.60
33655;DHT22;19997;51.274;22.506;2023-04-24T04:14:08;12.40;68.70
33655;DHT22;19997;51.274;22.506;2023-04-24T04:16:38;12.30;68.70
33655;DHT22;19997;51.274;22.506;2023-04-24T04:19:06;12.30;68.70
33655;DHT22;19997;51.274;22.506;2023-04-24T04:21:33;12.30;68.70
33655;DHT22;19997;51.274;22.506;2023-04-24T04:24:18;12.40;68.70
33655;DHT22;19997;51.274;22.506;2023-04-24T04:26:46;12.40;68.70
33655;DHT22;19997;51.274;22.506;2023-04-24T04:29:22;12.40;68.70
33655;DHT22;19997;51.274;22.506;2023-04-24T04:31:50;12.40;68.70
33655;DHT22;19997;51.274;22.506;2023-04-24T04:34:18;12.40;69.00
33655;DHT22;19997;51.274;22.506;2023-04-24T04:36:45;12.40;69.00
33655;DHT22;19997;51.274;22.506;2023-04-24T04:39:33;12.40;69.00
33655;DHT22;19997;51.274;22.506;2023-04-24T04:42:06;12.50;69.10
33655;DHT22;19997;51.274;22.506;2023-04-24T04:44:41;12.60;69.00
33655;DHT22;19997;51.274;22.506;2023-04-24T04:47:13;12.70;69.10
33655;DHT22;19997;51.274;22.506;2023-04-24T04:49:42;12.80;69.00
33655;DHT22;19997;51.274;22.506;2023-04-24T04:52:17;12.90;68.80
33655;DHT22;19997;51.274;22.506;2023-04-24T04:54:46;13.00;68.60
33655;DHT22;19997;51.274;22.506;2023-04-24T04:57:13;13.20;68.40
33655;DHT22;19997;51.274;22.506;2023-04-24T04:59:42;13.30;68.10
33655;DHT22;19997;51.274;22.506;2023-04-24T05:02:15;13.40;67.80
33655;DHT22;19997;51.274;22.506;2023-04-24T05:04:42;13.50;67.40
33655;DHT22;19997;51.274;22.506;2023-04-24T05:07:09;13.60;67.00
33655;DHT22;19997;51.274;22.506;2023-04-24T05:09:39;13.70;66.80
33655;DHT22;19997;51.274;22.506;2023-04-24T05:12:06;13.70;66.60
33655;DHT22;19997;51.274;22.506;2023-04-24T05:14:42;13.80;66.50
33655;DHT22;19997;51.274;22.506;2023-04-24T05:17:10;13.80;66.40
33655;DHT22;19997;51.274;22.506;2023-04-24T05:19:37;13.80;66.20
33655;DHT22;19997;51.274;22.506;2023-04-24T05:22:05;13.90;66.20
33655;DHT22;19997;51.274;22.506;2023-04-24T05:24:36;13.90;66.00
33655;DHT22;19997;51.274;22.506;2023-04-24T05:27:38;14.00;66.10
33655;DHT22;19997;51.274;22.506;2023-04-24T05:30:14;14.00;65.70
33655;DHT22;19997;51.274;22.506;2023-04-24T05:32:41;14.00;65.70
33655;DHT22;19997;51.274;22.506;2023-04-24T05:35:08;14.00;65.70
33655;DHT22;19997;51.274;22.506;2023-04-24T05:37:36;14.00;65.60
33655;DHT22;19997;51.274;22.506;2023-04-24T05:40:03;14.00;65.50
33655;DHT22;19997;51.274;22.506;2023-04-24T05:42:31;14.10;65.50
33655;DHT22;19997;51.274;22.506;2023-04-24T05:44:58;14.10;65.50
33655;DHT22;19997;51.274;22.506;2023-04-24T05:47:27;14.20;65.60
33655;DHT22;19997;51.274;22.506;2023-04-24T05:49:54;14.20;65.50
33655;DHT22;19997;51.274;22.506;2023-04-24T05:52:21;14.30;65.50
33655;DHT22;19997;51.274;22.506;2023-04-24T05:54:49;14.40;65.50
33655;DHT22;19997;51.274;22.506;2023-04-24T05:57:21;14.50;65.40
33655;DHT22;19997;51.274;22.506;2023-04-24T06:00:00;14.60;65.30
33655;DHT22;19997;51.274;22.506;2023-04-24T06:02:40;14.70;65.00
33655;DHT22;19997;51.274;22.506;2023-04-24T06:05:10;14.80;64.80
33655;DHT22;19997;51.274;22.506;2023-04-24T06:07:37;14.90;64.30
33655;DHT22;19997;51.274;22.506;2023-04-24T06:10:07;15.00;64.20
33655;DHT22;19997;51.274;22.506;2023-04-24T06:12:40;15.10;63.80
33655;DHT22;19997;51.274;22.506;2023-04-24T06:15:13;15.20;63.60
33655;DHT22;19997;51.274;22.506;2023-04-24T06:18:04;15.30;63.30
33655;DHT22;19997;51.274;22.506;2023-04-24T06:20:32;15.40;63.10
33655;DHT22;19997;51.274;22.506;2023-04-24T06:23:01;15.50;62.90
33655;DHT22;19997;51.274;22.506;2023-04-24T06:25:28;15.60;62.40
33655;DHT22;19997;51.274;22.506;2023-04-24T06:27:55;15.80;61.80
33655;DHT22;19997;51.274;22.506;2023-04-24T06:30:23;15.90;61.50
33655;DHT22;19997;51.274;22.506;2023-04-24T06:32:50;15.90;61.10
33655;DHT22;19997;51.274;22.506;2023-04-24T06:35:19;16.10;61.10
33655;DHT22;19997;51.274;22.506;2023-04-24T06:37:46;16.20;60.70
33655;DHT22;19997;51.274;22.506;2023-04-24T06:40:13;16.30;60.40
33655;DHT22;19997;51.274;22.506;2023-04-24T06:42:40;16.40;60.10
33655;DHT22;19997;51.274;22.506;2023-04-24T06:45:08;16.50;59.80
33655;DHT22;19997;51.274;22.506;2023-04-24T06:47:36;16.60;59.60
33655;DHT22;19997;51.274;22.506;2023-04-24T06:50:04;16.60;59.20
33655;DHT22;19997;51.274;22.506;2023-04-24T06:52:33;16.70;59.20
33655;DHT22;19997;51.274;22.506;2023-04-24T06:55:01;16.80;59.20
33655;DHT22;19997;51.274;22.506;2023-04-24T06:57:28;16.90;59.00
33655;DHT22;19997;51.274;22.506;2023-04-24T06:59:55;17.00;58.90
33655;DHT22;19997;51.274;22.506;2023-04-24T07:02:23;17.10;58.80
33655;DHT22;19997;51.274;22.506;2023-04-24T07:04:50;17.20;58.70
33655;DHT22;19997;51.274;22.506;2023-04-24T07:07:18;17.30;58.40
33655;DHT22;19997;51.274;22.506;2023-04-24T07:09:46;17.30;58.10
33655;DHT22;19997;51.274;22.506;2023-04-24T07:12:14;17.40;58.20
33655;DHT22;19997;51.274;22.506;2023-04-24T07:14:42;17.50;58.00
33655;DHT22;19997;51.274;22.506;2023-04-24T07:17:09;17.60;57.80
33655;DHT22;19997;51.274;22.506;2023-04-24T07:19:38;17.60;57.40
33655;DHT22;19997;51.274;22.506;2023-04-24T07:22:05;17.70;57.70
33655;DHT22;19997;51.274;22.506;2023-04-24T07:24:32;17.80;58.00
33655;DHT22;19997;51.274;22.506;2023-04-24T07:27:01;17.90;58.00
33655;DHT22;19997;51.274;22.506;2023-04-24T07:29:29;18.00;57.80
33655;DHT22;19997;51.274;22.506;2023-04-24T07:31:56;18.10;57.70
33655;DHT22;19997;51.274;22.506;2023-04-24T07:34:23;18.20;57.40
33655;DHT22;19997;51.274;22.506;2023-04-24T07:36:50;18.30;57.30
33655;DHT22;19997;51.274;22.506;2023-04-24T07:39:18;18.30;56.90
33655;DHT22;19997;51.274;22.506;2023-04-24T07:41:45;18.40;57.10
33655;DHT22;19997;51.274;22.506;2023-04-24T07:44:13;18.50;56.70
33655;DHT22;19997;51.274;22.506;2023-04-24T07:46:40;18.60;56.50
33655;DHT22;19997;51.274;22.506;2023-04-24T07:49:07;18.70;56.60
33655;DHT22;19997;51.274;22.506;2023-04-24T07:51:34;18.70;56.30
33655;DHT22;19997;51.274;22.506;2023-04-24T07:54:04;18.80;55.80
33655;DHT22;19997;51.274;22.506;2023-04-24T07:56:32;18.90;56.10
33655;DHT22;19997;51.274;22.506;2023-04-24T07:58:59;19.00;55.90
33655;DHT22;19997;51.274;22.506;2023-04-24T08:01:28;19.10;55.70
33655;DHT22;19997;51.274;22.506;2023-04-24T08:03:55;19.20;55.70
33655;DHT22;19997;51.274;22.506;2023-04-24T08:06:22;19.20;55.60
33655;DHT22;19997;51.274;22.506;2023-04-24T08:08:49;19.30;55.10
33655;DHT22;19997;51.274;22.506;2023-04-24T08:11:17;19.40;55.00
33655;DHT22;19997;51.274;22.506;2023-04-24T08:13:44;19.40;55.10
33655;DHT22;19997;51.274;22.506;2023-04-24T08:16:11;19.50;55.80
33655;DHT22;19997;51.274;22.506;2023-04-24T08:18:39;19.60;55.00
33655;DHT22;19997;51.274;22.506;2023-04-24T08:21:06;19.60;54.90
33655;DHT22;19997;51.274;22.506;2023-04-24T08:23:33;19.70;55.00
33655;DHT22;19997;51.274;22.506;2023-04-24T08:26:01;19.70;54.80
33655;DHT22;19997;51.274;22.506;2023-04-24T08:28:28;19.80;54.50
33655;DHT22;19997;51.274;22.506;2023-04-24T08:30:56;19.90;54.70
33655;DHT22;19997;51.274;22.506;2023-04-24T08:33:23;20.00;54.60
33655;DHT22;19997;51.274;22.506;2023-04-24T08:35:52;20.00;53.70
33655;DHT22;19997;51.274;22.506;2023-04-24T08:38:19;20.10;53.00
33655;DHT22;19997;51.274;22.506;2023-04-24T08:40:47;20.20;53.30
33655;DHT22;19997;51.274;22.506;2023-04-24T08:43:15;20.20;53.00
33655;DHT22;19997;51.274;22.506;2023-04-24T08:45:43;20.30;52.30
33655;DHT22;19997;51.274;22.506;2023-04-24T08:48:10;20.30;52.20
33655;DHT22;19997;51.274;22.506;2023-04-24T08:50:37;20.40;51.80
33655;DHT22;19997;51.274;22.506;2023-04-24T08:53:09;20.50;51.90
33655;DHT22;19997;51.274;22.506;2023-04-24T08:55:37;20.60;52.70
33655;DHT22;19997;51.274;22.506;2023-04-24T08:58:04;20.70;53.60
33655;DHT22;19997;51.274;22.506;2023-04-24T09:00:31;20.80;54.10
33655;DHT22;19997;51.274;22.506;2023-04-24T09:03:00;20.80;53.70
33655;DHT22;19997;51.274;22.506;2023-04-24T09:05:28;20.90;53.50
33655;DHT22;19997;51.274;22.506;2023-04-24T09:07:57;21.00;53.20
33655;DHT22;19997;51.274;22.506;2023-04-24T09:10:26;21.00;53.10
33655;DHT22;19997;51.274;22.506;2023-04-24T09:12:56;21.10;53.10
33655;DHT22;19997;51.274;22.506;2023-04-24T09:15:27;21.20;52.50
33655;DHT22;19997;51.274;22.506;2023-04-24T09:17:55;21.20;51.90
33655;DHT22;19997;51.274;22.506;2023-04-24T09:20:23;21.30;50.90
33655;DHT22;19997;51.274;22.506;2023-04-24T09:22:54;21.30;50.70
33655;DHT22;19997;51.274;22.506;2023-04-24T09:25:22;21.40;50.80
33655;DHT22;19997;51.274;22.506;2023-04-24T09:27:53;21.40;51.60
33655;DHT22;19997;51.274;22.506;2023-04-24T09:30:21;21.50;51.20
33655;DHT22;19997;51.274;22.506;2023-04-24T09:32:49;21.50;50.50
33655;DHT22;19997;51.274;22.506;2023-04-24T09:35:16;21.60;50.40
33655;DHT22;19997;51.274;22.506;2023-04-24T09:37:45;21.60;50.40
33655;DHT22;19997;51.274;22.506;2023-04-24T09:40:14;21.70;50.10
33655;DHT22;19997;51.274;22.506;2023-04-24T09:42:46;21.70;49.90
33655;DHT22;19997;51.274;22.506;2023-04-24T09:45:15;21.80;49.70
33655;DHT22;19997;51.274;22.506;2023-04-24T09:47:43;21.80;49.20
33655;DHT22;19997;51.274;22.506;2023-04-24T09:50:14;21.90;48.40
33655;DHT22;19997;51.274;22.506;2023-04-24T09:52:43;21.90;48.80
33655;DHT22;19997;51.274;22.506;2023-04-24T09:55:12;22.00;49.30
33655;DHT22;19997;51.274;22.506;2023-04-24T09:57:47;22.00;49.00
33655;DHT22;19997;51.274;22.506;2023-04-24T10:00:22;22.10;48.30
33655;DHT22;19997;51.274;22.506;2023-04-24T10:02:58;22.10;47.00
33655;DHT22;19997;51.274;22.506;2023-04-24T10:05:27;22.20;47.10
33655;DHT22;19997;51.274;22.506;2023-04-24T10:08:02;22.20;46.50
33655;DHT22;19997;51.274;22.506;2023-04-24T10:10:30;22.30;46.30
33655;DHT22;19997;51.274;22.506;2023-04-24T10:12:57;22.30;46.50
33655;DHT22;19997;51.274;22.506;2023-04-24T10:15:26;22.30;46.80
33655;DHT22;19997;51.274;22.506;2023-04-24T10:17:53;22.40;46.50
33655;DHT22;19997;51.274;22.506;2023-04-24T10:20:22;22.40;45.90
33655;DHT22;19997;51.274;22.506;2023-04-24T10:22:51;22.50;45.30
33655;DHT22;19997;51.274;22.506;2023-04-24T10:25:19;22.50;45.30
33655;DHT22;19997;51.274;22.506;2023-04-24T10:27:48;22.60;45.80
33655;DHT22;19997;51.274;22.506;2023-04-24T10:30:17;22.70;45.20
33655;DHT22;19997;51.274;22.506;2023-04-24T10:32:45;22.70;44.60
33655;DHT22;19997;51.274;22.506;2023-04-24T10:35:14;22.80;44.30
33655;DHT22;19997;51.274;22.506;2023-04-24T10:37:45;22.80;44.30
33655;DHT22;19997;51.274;22.506;2023-04-24T10:40:17;22.90;44.00
33655;DHT22;19997;51.274;22.506;2023-04-24T10:42:47;23.00;42.70
33655;DHT22;19997;51.274;22.506;2023-04-24T10:45:18;23.00;43.30
33655;DHT22;19997;51.274;22.506;2023-04-24T10:47:57;23.00;43.00
33655;DHT22;19997;51.274;22.506;2023-04-24T10:50:26;23.10;43.50
33655;DHT22;19997;51.274;22.506;2023-04-24T10:53:05;23.20;43.50
33655;DHT22;19997;51.274;22.506;2023-04-24T10:55:43;23.30;43.20
33655;DHT22;19997;51.274;22.506;2023-04-24T10:58:11;23.40;43.10
33655;DHT22;19997;51.274;22.506;2023-04-24T11:00:43;23.40;43.30
33655;DHT22;19997;51.274;22.506;2023-04-24T11:03:26;23.50;43.30
33655;DHT22;19997;51.274;22.506;2023-04-24T11:05:59;23.50;43.10
33655;DHT22;19997;51.274;22.506;2023-04-24T11:08:28;23.50;43.30
33655;DHT22;19997;51.274;22.506;2023-04-24T11:10:58;23.70;43.40
33655;DHT22;19997;51.274;22.506;2023-04-24T11:13:27;23.80;42.90
33655;DHT22;19997;51.274;22.506;2023-04-24T11:16:13;23.90;42.70
33655;DHT22;19997;51.274;22.506;2023-04-24T11:18:43;24.00;43.50
33655;DHT22;19997;51.274;22.506;2023-04-24T11:21:17;24.00;42.70
33655;DHT22;19997;51.274;22.506;2023-04-24T11:23:45;24.10;42.40
33655;DHT22;19997;51.274;22.506;2023-04-24T11:26:17;24.20;42.30
33655;DHT22;19997;51.274;22.506;2023-04-24T11:28:46;24.20;41.50
33655;DHT22;19997;51.274;22.506;2023-04-24T11:31:36;24.20;41.60
33655;DHT22;19997;51.274;22.506;2023-04-24T11:34:13;24.20;41.90
33655;DHT22;19997;51.274;22.506;2023-04-24T11:36:43;24.30;41.50
33655;DHT22;19997;51.274;22.506;2023-04-24T11:39:10;24.40;40.90
33655;DHT22;19997;51.274;22.506;2023-04-24T11:41:37;24.40;40.90
33655;DHT22;19997;51.274;22.506;2023-04-24T11:44:07;24.40;41.20
33655;DHT22;19997;51.274;22.506;2023-04-24T11:46:34;24.40;41.30
33655;DHT22;19997;51.274;22.506;2023-04-24T11:49:03;24.30;41.10
33655;DHT22;19997;51.274;22.506;2023-04-24T11:51:32;24.30;41.30
33655;DHT22;19997;51.274;22.506;2023-04-24T11:54:00;24.30;41.00
33655;DHT22;19997;51.274;22.506;2023-04-24T11:56:28;24.30;40.70
33655;DHT22;19997;51.274;22.506;2023-04-24T11:58:55;24.30;40.90
33655;DHT22;19997;51.274;22.506;2023-04-24T12:01:24;24.40;40.50
33655;DHT22;19997;51.274;22.506;2023-04-24T12:03:59;24.40;40.40
33655;DHT22;19997;51.274;22.506;2023-04-24T12:06:26;24.60;39.90
33655;DHT22;19997;51.274;22.506;2023-04-24T12:08:55;24.60;39.90
33655;DHT22;19997;51.274;22.506;2023-04-24T12:11:23;24.50;40.00
33655;DHT22;19997;51.274;22.506;2023-04-24T12:13:51;24.50;40.20
33655;DHT22;19997;51.274;22.506;2023-04-24T12:16:18;24.50;40.40
33655;DHT22;19997;51.274;22.506;2023-04-24T12:18:45;24.50;39.80
33655;DHT22;19997;51.274;22.506;2023-04-24T12:21:20;24.50;39.40
33655;DHT22;19997;51.274;22.506;2023-04-24T12:24:08;24.40;39.00
33655;DHT22;19997;51.274;22.506;2023-04-24T12:26:35;24.40;38.80
33655;DHT22;19997;51.274;22.506;2023-04-24T12:29:03;24.40;39.00
33655;DHT22;19997;51.274;22.506;2023-04-24T12:31:31;24.40;38.50
33655;DHT22;19997;51.274;22.506;2023-04-24T12:33:58;24.30;38.50
33655;DHT22;19997;51.274;22.506;2023-04-24T12:36:25;24.30;38.30
33655;DHT22;19997;51.274;22.506;2023-04-24T12:38:53;24.20;38.50
33655;DHT22;19997;51.274;22.506;2023-04-24T12:41:22;24.30;38.80
33655;DHT22;19997;51.274;22.506;2023-04-24T12:43:53;24.30;38.90
33655;DHT22;19997;51.274;22.506;2023-04-24T12:46:20;24.40;38.80
33655;DHT22;19997;51.274;22.506;2023-04-24T12:48:48;24.40;38.80
33655;DHT22;19997;51.274;22.506;2023-04-24T12:51:15;24.40;38.40
33655;DHT22;19997;51.274;22.506;2023-04-24T12:53:42;24.50;38.40
33655;DHT22;19997;51.274;22.506;2023-04-24T12:56:10;24.50;37.70
33655;DHT22;19997;51.274;22.506;2023-04-24T12:58:38;24.50;37.20
33655;DHT22;19997;51.274;22.506;2023-04-24T13:01:05;24.60;37.00
33655;DHT22;19997;51.274;22.506;2023-04-24T13:03:33;24.60;36.30
33655;DHT22;19997;51.274;22.506;2023-04-24T13:06:00;24.60;36.60
33655;DHT22;19997;51.274;22.506;2023-04-24T13:08:27;24.60;37.10
33655;DHT22;19997;51.274;22.506;2023-04-24T13:10:54;24.50;36.70
33655;DHT22;19997;51.274;22.506;2023-04-24T13:13:21;24.50;37.10
33655;DHT22;19997;51.274;22.506;2023-04-24T13:15:49;24.40;37.50
33655;DHT22;19997;51.274;22.506;2023-04-24T13:18:16;24.30;37.50
33655;DHT22;19997;51.274;22.506;2023-04-24T13:20:44;24.30;37.60
33655;DHT22;19997;51.274;22.506;2023-04-24T13:23:13;24.30;37.90
33655;DHT22;19997;51.274;22.506;2023-04-24T13:25:41;24.40;38.10
33655;DHT22;19997;51.274;22.506;2023-04-24T13:28:08;24.40;37.50
33655;DHT22;19997;51.274;22.506;2023-04-24T13:30:35;24.40;36.50
33655;DHT22;19997;51.274;22.506;2023-04-24T13:33:04;24.30;37.00
33655;DHT22;19997;51.274;22.506;2023-04-24T13:35:31;24.30;37.00
33655;DHT22;19997;51.274;22.506;2023-04-24T13:37:58;24.30;36.80
33655;DHT22;19997;51.274;22.506;2023-04-24T13:40:27;24.30;37.30
33655;DHT22;19997;51.274;22.506;2023-04-24T13:42:54;24.40;37.60
33655;DHT22;19997;51.274;22.506;2023-04-24T13:45:21;24.50;37.20
33655;DHT22;19997;51.274;22.506;2023-04-24T13:47:48;24.60;36.90
33655;DHT22;19997;51.274;22.506;2023-04-24T13:50:17;24.60;37.10
33655;DHT22;19997;51.274;22.506;2023-04-24T13:52:44;24.70;37.00
33655;DHT22;19997;51.274;22.506;2023-04-24T13:55:11;24.80;38.40
33655;DHT22;19997;51.274;22.506;2023-04-24T13:57:38;25.00;37.80
33655;DHT22;19997;51.274;22.506;2023-04-24T14:00:07;25.10;36.80
33655;DHT22;19997;51.274;22.506;2023-04-24T14:02:36;25.30;36.40
33655;DHT22;19997;51.274;22.506;2023-04-24T14:05:04;25.40;36.30
33655;DHT22;19997;51.274;22.506;2023-04-24T14:07:33;25.60;37.30
33655;DHT22;19997;51.274;22.506;2023-04-24T14:10:00;25.80;37.90
33655;DHT22;19997;51.274;22.506;2023-04-24T14:12:27;25.90;37.90
33655;DHT22;19997;51.274;22.506;2023-04-24T14:14:54;26.00;37.90
33655;DHT22;19997;51.274;22.506;2023-04-24T14:17:21;26.00;37.90
33655;DHT22;19997;51.274;22.506;2023-04-24T14:19:48;26.00;37.50
33655;DHT22;19997;51.274;22.506;2023-04-24T14:22:15;26.00;37.80
33655;DHT22;19997;51.274;22.506;2023-04-24T14:24:44;25.90;37.90
33655;DHT22;19997;51.274;22.506;2023-04-24T14:27:11;25.90;38.20
33655;DHT22;19997;51.274;22.506;2023-04-24T14:29:38;26.00;37.80
33655;DHT22;19997;51.274;22.506;2023-04-24T14:32:05;26.00;37.70
33655;DHT22;19997;51.274;22.506;2023-04-24T14:34:32;26.00;38.10
33655;DHT22;19997;51.274;22.506;2023-04-24T14:36:59;25.90;38.40
33655;DHT22;19997;51.274;22.506;2023-04-24T14:39:26;25.80;38.30
33655;DHT22;19997;51.274;22.506;2023-04-24T14:41:54;25.60;38.20
33655;DHT22;19997;51.274;22.506;2023-04-24T14:44:22;25.60;38.20
33655;DHT22;19997;51.274;22.506;2023-04-24T14:46:49;25.70;38.20
33655;DHT22;19997;51.274;22.506;2023-04-24T14:49:16;25.80;38.40
33655;DHT22;19997;51.274;22.506;2023-04-24T14:51:43;25.90;37.40
33655;DHT22;19997;51.274;22.506;2023-04-24T14:54:11;25.90;37.10
33655;DHT22;19997;51.274;22.506;2023-04-24T14:56:38;25.80;36.80
33655;DHT22;19997;51.274;22.506;2023-04-24T14:59:08;25.80;36.40
33655;DHT22;19997;51.274;22.506;2023-04-24T15:01:35;25.90;36.10
33655;DHT22;19997;51.274;22.506;2023-04-24T15:04:02;26.20;35.90
33655;DHT22;19997;51.274;22.506;2023-04-24T15:06:30;26.60;35.90
33655;DHT22;19997;51.274;22.506;2023-04-24T15:08:58;27.10;36.10
33655;DHT22;19997;51.274;22.506;2023-04-24T15:11:25;27.70;35.70
33655;DHT22;19997;51.274;22.506;2023-04-24T15:13:53;28.70;35.10
33655;DHT22;19997;51.274;22.506;2023-04-24T15:16:23;29.70;34.30
33655;DHT22;19997;51.274;22.506;2023-04-24T15:18:50;30.60;33.70
33655;DHT22;19997;51.274;22.506;2023-04-24T15:21:18;31.40;32.70
33655;DHT22;19997;51.274;22.506;2023-04-24T15:23:45;32.00;31.90
33655;DHT22;19997;51.274;22.506;2023-04-24T15:26:12;32.50;31.40